sensor_id;sensor_type;location;lat;lon;timestamp;temperature;humidity
4993;DHT22;2514;53.524;10.166;2022-11-15T00:00:56;5.70;99.90
4993;DHT22;2514;53.524;10.166;2022-11-15T00:03:24;5.70;99.90
4993;DHT22;2514;53.524;10.166;2022-11-15T00:05:53;5.60;99.90
4993;DHT22;2514;53.524;10.166;2022-11-15T00:08:20;5.70;99.90
4993;DHT22;2514;53.524;10.166;2022-11-15T00:10:58;5.70;99.90
4993;DHT22;2514;53.524;10.166;2022-11-15T00:13:26;5.70;99.90
4993;DHT22;2514;53.524;10.166;2022-11-15T00:15:56;5.70;99.90
4993;DHT22;2514;53.524;10.166;2022-11-15T00:18:24;5.70;99.90
4993;DHT22;2514;53.524;10.166;2022-11-15T00:20:51;5.70;99.90
4993;DHT22;2514;53.524;10.166;2022-11-15T00:23:17;5.70;99.90
4993;DHT22;2514;53.524;10.166;2022-11-15T00:25:45;5.70;99.90
4993;DHT22;2514;53.524;10.166;2022-11-15T00:28:13;5.60;99.90
4993;DHT22;2514;53.524;10.166;2022-11-15T00:30:40;5.60;99.90
4993;DHT22;2514;53.524;10.166;2022-11-15T00:33:08;5.70;99.90
4993;DHT22;2514;53.524;10.166;2022-11-15T00:35:36;5.80;99.90
4993;DHT22;2514;53.524;10.166;2022-11-15T00:38:03;5.80;99.90
4993;DHT22;2514;53.524;10.166;2022-11-15T00:40:30;5.80;99.90
4993;DHT22;2514;53.524;10.166;2022-11-15T00:43:00;5.80;99.90
4993;DHT22;2514;53.524;10.166;2022-11-15T00:45:29;5.90;99.90
4993;DHT22;2514;53.524;10.166;2022-11-15T00:47:56;5.80;99.90
4993;DHT22;2514;53.524;10.166;2022-11-15T00:50:23;5.90;99.90
4993;DHT22;2514;53.524;10.166;2022-11-15T00:52:50;5.80;99.90
4993;DHT22;2514;53.524;10.166;2022-11-15T00:55:18;5.80;99.90
4993;DHT22;2514;53.524;10.166;2022-11-15T00:57:46;5.90;99.90
4993;DHT22;2514;53.524;10.166;2022-11-15T01:00:14;5.90;99.90
4993;DHT22;2514;53.524;10.166;2022-11-15T01:02:43;6.00;99.90
4993;DHT22;2514;53.524;10.166;2022-11-15T01:05:10;6.10;99.90
4993;DHT22;2514;53.524;10.166;2022-11-15T01:07:37;6.10;99.90
4993;DHT22;2514;53.524;10.166;2022-11-15T01:10:04;6.10;99.90
4993;DHT22;2514;53.524;10.166;2022-11-15T01:12:33;6.20;99.90
4993;DHT22;2514;53.524;10.166;2022-11-15T01:15:00;6.20;99.90
4993;DHT22;2514;53.524;10.166;2022-11-15T01:17:27;6.30;99.90
4993;DHT22;2514;53.524;10.166;2022-11-15T01:19:55;6.30;99.90
4993;DHT22;2514;53.524;10.166;2022-11-15T01:22:23;6.30;99.90
4993;DHT22;2514;53.524;10.166;2022-11-15T01:24:50;6.20;99.90
4993;DHT22;2514;53.524;10.166;2022-11-15T01:27:17;6.20;99.90
4993;DHT22;2514;53.524;10.166;2022-11-15T01:29:44;6.20;99.90
4993;DHT22;2514;53.524;10.166;2022-11-15T01:32:11;6.10;99.90
4993;DHT22;2514;53.524;10.166;2022-11-15T01:34:38;6.10;99.90
4993;DHT22;2514;53.524;10.166;2022-11-15T01:37:07;6.10;99.90
4993;DHT22;2514;53.524;10.166;2022-11-15T01:39:34;6.10;99.90
4993;DHT22;2514;53.524;10.166;2022-11-15T01:42:01;6.10;99.90
4993;DHT22;2514;53.524;10.166;2022-11-15T01:44:43;6.10;99.90
4993;DHT22;2514;53.524;10.166;2022-11-15T01:47:15;6.10;99.90
4993;DHT22;2514;53.524;10.166;2022-11-15T01:49:50;6.10;99.90
4993;DHT22;2514;53.524;10.166;2022-11-15T01:52:23;6.00;99.90
4993;DHT22;2514;53.524;10.166;2022-11-15T01:54:55;6.00;99.90
4993;DHT22;2514;53.524;10.166;2022-11-15T01:57:24;6.00;99.90
4993;DHT22;2514;53.524;10.166;2022-11-15T01:59:52;6.00;99.90
4993;DHT22;2514;53.524;10.166;2022-11-15T02:02:19;6.00;99.90
4993;DHT22;2514;53.524;10.166;2022-11-15T02:04:47;5.90;99.90
4993;DHT22;2514;53.524;10.166;2022-11-15T02:07:16;5.90;99.90
4993;DHT22;2514;53.524;10.166;2022-11-15T02:09:46;5.90;99.90
4993;DHT22;2514;53.524;10.166;2022-11-15T02:12:15;5.90;99.90
4993;DHT22;2514;53.524;10.166;2022-11-15T02:14:47;6.00;99.90
4993;DHT22;2514;53.524;10.166;2022-11-15T02:17:31;6.00;99.90
4993;DHT22;2514;53.524;10.166;2022-11-15T02:23:28;6.10;99.90
4993;DHT22;2514;53.524;10.166;2022-11-15T02:26:19;6.10;99.90
4993;DHT22;2514;53.524;10.166;2022-11-15T02:29:00;6.10;99.90
4993;DHT22;2514;53.524;10.166;2022-11-15T02:31:36;6.10;99.90
4993;DHT22;2514;53.524;10.166;2022-11-15T02:34:11;6.20;99.90
4993;DHT22;2514;53.524;10.166;2022-11-15T02:36:54;6.20;99.90
4993;DHT22;2514;53.524;10.166;2022-11-15T02:39:30;6.30;99.90
4993;DHT22;2514;53.524;10.166;2022-11-15T02:42:06;6.20;99.90
4993;DHT22;2514;53.524;10.166;2022-11-15T02:44:57;6.20;99.90
4993;DHT22;2514;53.524;10.166;2022-11-15T02:47:31;6.20;99.90
4993;DHT22;2514;53.524;10.166;2022-11-15T02:50:03;6.10;99.90
4993;DHT22;2514;53.524;10.166;2022-11-15T02:52:31;6.00;99.90
4993;DHT22;2514;53.524;10.166;2022-11-15T02:54:59;5.90;99.90
4993;DHT22;2514;53.524;10.166;2022-11-15T02:57:36;5.90;99.90
4993;DHT22;2514;53.524;10.166;2022-11-15T03:00:09;5.90;99.90
4993;DHT22;2514;53.524;10.166;2022-11-15T03:02:52;5.80;99.90
4993;DHT22;2514;53.524;10.166;2022-11-15T03:05:30;5.80;99.90
4993;DHT22;2514;53.524;10.166;2022-11-15T03:08:10;5.80;99.90
4993;DHT22;2514;53.524;10.166;2022-11-15T03:10:45;5.80;99.90
4993;DHT22;2514;53.524;10.166;2022-11-15T03:13:23;5.80;99.90
4993;DHT22;2514;53.524;10.166;2022-11-15T03:15:56;5.80;99.90
4993;DHT22;2514;53.524;10.166;2022-11-15T03:18:32;5.70;99.90
4993;DHT22;2514;53.524;10.166;2022-11-15T03:21:03;5.70;99.90
4993;DHT22;2514;53.524;10.166;2022-11-15T03:23:33;5.60;99.90
4993;DHT22;2514;53.524;10.166;2022-11-15T03:26:01;5.60;99.90
4993;DHT22;2514;53.524;10.166;2022-11-15T03:28:32;5.60;99.90
4993;DHT22;2514;53.524;10.166;2022-11-15T03:31:02;5.50;99.90
4993;DHT22;2514;53.524;10.166;2022-11-15T03:33:53;5.50;99.90
4993;DHT22;2514;53.524;10.166;2022-11-15T03:36:22;5.50;99.90
4993;DHT22;2514;53.524;10.166;2022-11-15T03:38:52;5.50;99.90
4993;DHT22;2514;53.524;10.166;2022-11-15T03:41:23;5.50;99.90
4993;DHT22;2514;53.524;10.166;2022-11-15T03:43:56;5.60;99.90
4993;DHT22;2514;53.524;10.166;2022-11-15T03:46:31;5.60;99.90
4993;DHT22;2514;53.524;10.166;2022-11-15T03:49:07;5.60;99.90
4993;DHT22;2514;53.524;10.166;2022-11-15T03:51:36;5.60;99.90
4993;DHT22;2514;53.524;10.166;2022-11-15T03:54:03;5.70;99.90
4993;DHT22;2514;53.524;10.166;2022-11-15T03:56:31;5.60;99.90
4993;DHT22;2514;53.524;10.166;2022-11-15T03:58:58;5.50;99.90
4993;DHT22;2514;53.524;10.166;2022-11-15T04:01:25;5.60;99.90
4993;DHT22;2514;53.524;10.166;2022-11-15T04:03:52;5.60;99.90
4993;DHT22;2514;53.524;10.166;2022-11-15T04:06:20;5.70;99.90
4993;DHT22;2514;53.524;10.166;2022-11-15T04:08:47;5.70;99.90
4993;DHT22;2514;53.524;10.166;2022-11-15T04:11:14;5.80;99.90
4993;DHT22;2514;53.524;10.166;2022-11-15T04:13:41;5.80;99.90
4993;DHT22;2514;53.524;10.166;2022-11-15T04:16:08;5.80;99.90
4993;DHT22;2514;53.524;10.166;2022-11-15T04:18:35;5.80;99.90
4993;DHT22;2514;53.524;10.166;2022-11-15T04:21:03;5.80;99.90
4993;DHT22;2514;53.524;10.166;2022-11-15T04:23:48;5.80;99.90
4993;DHT22;2514;53.524;10.166;2022-11-15T04:26:33;5.80;99.90
4993;DHT22;2514;53.524;10.166;2022-11-15T04:29:00;5.80;99.90
4993;DHT22;2514;53.524;10.166;2022-11-15T04:31:45;5.80;99.90
4993;DHT22;2514;53.524;10.166;2022-11-15T04:34:12;5.80;99.90
4993;DHT22;2514;53.524;10.166;2022-11-15T04:36:39;5.80;99.90
4993;DHT22;2514;53.524;10.166;2022-11-15T04:39:25;5.70;99.90
4993;DHT22;2514;53.524;10.166;2022-11-15T04:41:52;5.80;99.90
4993;DHT22;2514;53.524;10.166;2022-11-15T04:44:19;5.80;99.90
4993;DHT22;2514;53.524;10.166;2022-11-15T04:46:46;5.80;99.90
4993;DHT22;2514;53.524;10.166;2022-11-15T04:49:13;5.90;99.90
4993;DHT22;2514;53.524;10.166;2022-11-15T04:51:40;5.90;99.90
4993;DHT22;2514;53.524;10.166;2022-11-15T04:54:07;6.00;99.90
4993;DHT22;2514;53.524;10.166;2022-11-15T04:56:35;6.20;99.90
4993;DHT22;2514;53.524;10.166;2022-11-15T04:59:02;6.20;99.90
4993;DHT22;2514;53.524;10.166;2022-11-15T05:01:29;6.30;99.90
4993;DHT22;2514;53.524;10.166;2022-11-15T05:03:56;6.30;99.90
4993;DHT22;2514;53.524;10.166;2022-11-15T05:06:41;6.30;99.90
4993;DHT22;2514;53.524;10.166;2022-11-15T05:09:08;6.40;99.90
4993;DHT22;2514;53.524;10.166;2022-11-15T05:11:37;6.50;99.90
4993;DHT22;2514;53.524;10.166;2022-11-15T05:14:06;6.60;99.90
4993;DHT22;2514;53.524;10.166;2022-11-15T05:16:33;6.70;99.90
4993;DHT22;2514;53.524;10.166;2022-11-15T05:19:01;6.70;99.90
4993;DHT22;2514;53.524;10.166;2022-11-15T05:21:28;6.80;99.90
4993;DHT22;2514;53.524;10.166;2022-11-15T05:23:55;6.90;99.90
4993;DHT22;2514;53.524;10.166;2022-11-15T05:26:22;6.90;99.90
4993;DHT22;2514;53.524;10.166;2022-11-15T05:28:53;7.00;99.90
4993;DHT22;2514;53.524;10.166;2022-11-15T05:31:21;7.00;99.90
4993;DHT22;2514;53.524;10.166;2022-11-15T05:33:49;7.10;99.90
4993;DHT22;2514;53.524;10.166;2022-11-15T05:36:21;7.20;99.90
4993;DHT22;2514;53.524;10.166;2022-11-15T05:38:54;7.20;99.90
4993;DHT22;2514;53.524;10.166;2022-11-15T05:41:24;7.20;99.90
4993;DHT22;2514;53.524;10.166;2022-11-15T05:43:54;7.20;99.90
4993;DHT22;2514;53.524;10.166;2022-11-15T05:46:21;7.20;99.90
4993;DHT22;2514;53.524;10.166;2022-11-15T05:48:50;7.20;99.90
4993;DHT22;2514;53.524;10.166;2022-11-15T05:51:19;7.20;99.90
4993;DHT22;2514;53.524;10.166;2022-11-15T05:53:48;7.30;99.90
4993;DHT22;2514;53.524;10.166;2022-11-15T05:56:16;7.30;99.90
4993;DHT22;2514;53.524;10.166;2022-11-15T05:58:43;7.30;99.90
4993;DHT22;2514;53.524;10.166;2022-11-15T06:01:12;7.40;99.90
4993;DHT22;2514;53.524;10.166;2022-11-15T06:03:39;7.40;99.90
4993;DHT22;2514;53.524;10.166;2022-11-15T06:06:06;7.40;99.90
4993;DHT22;2514;53.524;10.166;2022-11-15T06:08:33;7.40;99.90
4993;DHT22;2514;53.524;10.166;2022-11-15T06:11:04;7.40;99.90
4993;DHT22;2514;53.524;10.166;2022-11-15T06:13:31;7.40;99.90
4993;DHT22;2514;53.524;10.166;2022-11-15T06:15:59;7.50;99.90
4993;DHT22;2514;53.524;10.166;2022-11-15T06:18:27;7.50;99.90
4993;DHT22;2514;53.524;10.166;2022-11-15T06:20:58;7.40;99.90
4993;DHT22;2514;53.524;10.166;2022-11-15T06:23:26;7.40;99.90
4993;DHT22;2514;53.524;10.166;2022-11-15T06:25:53;7.40;99.90
4993;DHT22;2514;53.524;10.166;2022-11-15T06:28:20;7.60;99.90
4993;DHT22;2514;53.524;10.166;2022-11-15T06:30:47;7.50;99.90
4993;DHT22;2514;53.524;10.166;2022-11-15T06:33:14;7.50;99.90
4993;DHT22;2514;53.524;10.166;2022-11-15T06:35:42;7.40;99.90
4993;DHT22;2514;53.524;10.166;2022-11-15T06:38:10;7.30;99.90
4993;DHT22;2514;53.524;10.166;2022-11-15T06:40:38;7.30;99.90
4993;DHT22;2514;53.524;10.166;2022-11-15T06:43:06;7.30;99.90
4993;DHT22;2514;53.524;10.166;2022-11-15T06:45:33;7.20;99.90
4993;DHT22;2514;53.524;10.166;2022-11-15T06:48:00;7.10;99.90
4993;DHT22;2514;53.524;10.166;2022-11-15T06:50:27;7.20;99.90
4993;DHT22;2514;53.524;10.166;2022-11-15T06:52:59;7.20;99.90
4993;DHT22;2514;53.524;10.166;2022-11-15T06:55:27;7.10;99.90
4993;DHT22;2514;53.524;10.166;2022-11-15T06:57:54;7.10;99.90
4993;DHT22;2514;53.524;10.166;2022-11-15T07:00:22;7.10;99.90
4993;DHT22;2514;53.524;10.166;2022-11-15T07:02:49;7.20;99.90
4993;DHT22;2514;53.524;10.166;2022-11-15T07:05:17;7.20;99.90
4993;DHT22;2514;53.524;10.166;2022-11-15T07:07:51;7.20;99.90
4993;DHT22;2514;53.524;10.166;2022-11-15T07:10:20;7.20;99.90
4993;DHT22;2514;53.524;10.166;2022-11-15T07:12:49;7.30;99.90
4993;DHT22;2514;53.524;10.166;2022-11-15T07:15:19;7.20;99.90
4993;DHT22;2514;53.524;10.166;2022-11-15T07:17:48;7.30;99.90
4993;DHT22;2514;53.524;10.166;2022-11-15T07:20:16;7.30;99.90
4993;DHT22;2514;53.524;10.166;2022-11-15T07:22:44;7.30;99.90
4993;DHT22;2514;53.524;10.166;2022-11-15T07:25:12;7.40;99.90
4993;DHT22;2514;53.524;10.166;2022-11-15T07:27:40;7.40;99.90
4993;DHT22;2514;53.524;10.166;2022-11-15T07:30:08;7.50;99.90
4993;DHT22;2514;53.524;10.166;2022-11-15T07:32:38;7.50;99.90
4993;DHT22;2514;53.524;10.166;2022-11-15T07:35:06;7.60;99.90
4993;DHT22;2514;53.524;10.166;2022-11-15T07:37:33;7.50;99.90
4993;DHT22;2514;53.524;10.166;2022-11-15T07:40:00;7.60;99.90
4993;DHT22;2514;53.524;10.166;2022-11-15T07:42:31;7.60;99.90
4993;DHT22;2514;53.524;10.166;2022-11-15T07:45:17;7.60;99.90
4993;DHT22;2514;53.524;10.166;2022-11-15T07:47:47;7.60;99.90
4993;DHT22;2514;53.524;10.166;2022-11-15T07:50:16;7.70;99.90
4993;DHT22;2514;53.524;10.166;2022-11-15T07:52:43;7.70;99.90
4993;DHT22;2514;53.524;10.166;2022-11-15T07:55:11;7.80;99.90
4993;DHT22;2514;53.524;10.166;2022-11-15T07:57:38;7.80;99.90
4993;DHT22;2514;53.524;10.166;2022-11-15T08:00:06;7.80;99.90
4993;DHT22;2514;53.524;10.166;2022-11-15T08:02:35;7.80;99.90
4993;DHT22;2514;53.524;10.166;2022-11-15T08:05:02;7.70;99.90
4993;DHT22;2514;53.524;10.166;2022-11-15T08:07:30;7.70;99.90
4993;DHT22;2514;53.524;10.166;2022-11-15T08:09:58;7.70;99.90
4993;DHT22;2514;53.524;10.166;2022-11-15T08:12:27;7.60;99.90
4993;DHT22;2514;53.524;10.166;2022-11-15T08:14:56;7.70;99.90
4993;DHT22;2514;53.524;10.166;2022-11-15T08:17:24;7.70;99.90
4993;DHT22;2514;53.524;10.166;2022-11-15T08:19:53;7.70;99.90
4993;DHT22;2514;53.524;10.166;2022-11-15T08:22:20;7.70;99.90
4993;DHT22;2514;53.524;10.166;2022-11-15T08:24:47;7.70;99.90
4993;DHT22;2514;53.524;10.166;2022-11-15T08:27:14;7.70;99.90
4993;DHT22;2514;53.524;10.166;2022-11-15T08:29:44;7.70;99.90
4993;DHT22;2514;53.524;10.166;2022-11-15T08:32:12;7.70;99.90
4993;DHT22;2514;53.524;10.166;2022-11-15T08:34:41;7.70;99.90
4993;DHT22;2514;53.524;10.166;2022-11-15T08:37:10;7.80;99.90
4993;DHT22;2514;53.524;10.166;2022-11-15T08:39:37;7.80;99.90
4993;DHT22;2514;53.524;10.166;2022-11-15T08:42:04;7.80;99.90
4993;DHT22;2514;53.524;10.166;2022-11-15T08:44:31;7.80;99.90
4993;DHT22;2514;53.524;10.166;2022-11-15T08:46:58;7.80;99.90
4993;DHT22;2514;53.524;10.166;2022-11-15T08:49:25;7.90;99.90
4993;DHT22;2514;53.524;10.166;2022-11-15T08:51:52;7.90;99.90
4993;DHT22;2514;53.524;10.166;2022-11-15T08:54:20;8.00;99.90
4993;DHT22;2514;53.524;10.166;2022-11-15T08:56:48;8.00;99.90
4993;DHT22;2514;53.524;10.166;2022-11-15T08:59:15;8.10;99.90
4993;DHT22;2514;53.524;10.166;2022-11-15T09:01:42;8.20;99.90
4993;DHT22;2514;53.524;10.166;2022-11-15T09:04:09;8.30;99.90
4993;DHT22;2514;53.524;10.166;2022-11-15T09:06:36;8.50;99.90
4993;DHT22;2514;53.524;10.166;2022-11-15T09:09:03;8.60;99.90
4993;DHT22;2514;53.524;10.166;2022-11-15T09:11:32;8.60;99.90
4993;DHT22;2514;53.524;10.166;2022-11-15T09:13:59;8.60;99.90
4993;DHT22;2514;53.524;10.166;2022-11-15T09:16:26;8.70;99.90
4993;DHT22;2514;53.524;10.166;2022-11-15T09:18:53;9.10;99.90
4993;DHT22;2514;53.524;10.166;2022-11-15T09:21:20;10.00;99.90
4993;DHT22;2514;53.524;10.166;2022-11-15T09:23:50;11.40;99.90
4993;DHT22;2514;53.524;10.166;2022-11-15T09:26:18;12.60;99.90
4993;DHT22;2514;53.524;10.166;2022-11-15T09:28:47;13.00;99.90
4993;DHT22;2514;53.524;10.166;2022-11-15T09:31:14;12.80;1.00
4993;DHT22;2514;53.524;10.166;2022-11-15T09:33:43;13.10;99.90
4993;DHT22;2514;53.524;10.166;2022-11-15T09:36:10;13.50;99.90
4993;DHT22;2514;53.524;10.166;2022-11-15T09:38:37;13.10;1.00
4993;DHT22;2514;53.524;10.166;2022-11-15T09:41:47;12.20;99.90
4993;DHT22;2514;53.524;10.166;2022-11-15T09:44:37;11.50;1.00
4993;DHT22;2514;53.524;10.166;2022-11-15T09:47:38;10.90;1.00
4993;DHT22;2514;53.524;10.166;2022-11-15T09:50:31;10.60;1.00
4993;DHT22;2514;53.524;10.166;2022-11-15T09:53:00;10.50;99.90
4993;DHT22;2514;53.524;10.166;2022-11-15T09:55:35;10.50;1.00
4993;DHT22;2514;53.524;10.166;2022-11-15T09:58:18;10.40;1.00
4993;DHT22;2514;53.524;10.166;2022-11-15T10:00:52;10.60;99.90
4993;DHT22;2514;53.524;10.166;2022-11-15T10:03:25;10.60;99.90
4993;DHT22;2514;53.524;10.166;2022-11-15T10:05:56;10.60;1.00
4993;DHT22;2514;53.524;10.166;2022-11-15T10:08:35;10.60;1.00
4993;DHT22;2514;53.524;10.166;2022-11-15T10:11:10;10.50;1.00
4993;DHT22;2514;53.524;10.166;2022-11-15T10:13:42;10.40;99.90
4993;DHT22;2514;53.524;10.166;2022-11-15T10:16:36;10.30;1.00
4993;DHT22;2514;53.524;10.166;2022-11-15T10:19:22;10.40;99.90
4993;DHT22;2514;53.524;10.166;2022-11-15T10:21:59;10.50;99.90
4993;DHT22;2514;53.524;10.166;2022-11-15T10:24:37;10.50;99.90
4993;DHT22;2514;53.524;10.166;2022-11-15T10:27:10;10.50;99.90
4993;DHT22;2514;53.524;10.166;2022-11-15T10:29:43;10.50;99.90
4993;DHT22;2514;53.524;10.166;2022-11-15T10:32:14;10.50;99.90
4993;DHT22;2514;53.524;10.166;2022-11-15T10:34:42;10.50;99.90
4993;DHT22;2514;53.524;10.166;2022-11-15T10:37:10;10.70;1.00
4993;DHT22;2514;53.524;10.166;2022-11-15T10:39:37;10.70;19.30
4993;DHT22;2514;53.524;10.166;2022-11-15T10:42:25;10.60;1.00
4993;DHT22;2514;53.524;10.166;2022-11-15T10:44:53;10.70;99.90
4993;DHT22;2514;53.524;10.166;2022-11-15T10:47:29;10.70;52.60
4993;DHT22;2514;53.524;10.166;2022-11-15T10:49:59;10.70;1.00
4993;DHT22;2514;53.524;10.166;2022-11-15T10:52:30;10.80;1.00
4993;DHT22;2514;53.524;10.166;2022-11-15T10:55:02;10.80;1.00
4993;DHT22;2514;53.524;10.166;2022-11-15T10:57:35;10.80;99.90
4993;DHT22;2514;53.524;10.166;2022-11-15T11:00:06;10.70;99.90
4993;DHT22;2514;53.524;10.166;2022-11-15T11:02:37;10.70;99.90
4993;DHT22;2514;53.524;10.166;2022-11-15T11:05:25;10.70;99.90
4993;DHT22;2514;53.524;10.166;2022-11-15T11:07:56;10.80;1.00
4993;DHT22;2514;53.524;10.166;2022-11-15T11:10:25;10.80;99.90
4993;DHT22;2514;53.524;10.166;2022-11-15T11:12:52;10.80;99.90
4993;DHT22;2514;53.524;10.166;2022-11-15T11:15:20;10.90;99.90
4993;DHT22;2514;53.524;10.166;2022-11-15T11:17:58;11.00;99.90
4993;DHT22;2514;53.524;10.166;2022-11-15T11:20:33;11.10;99.90
4993;DHT22;2514;53.524;10.166;2022-11-15T11:23:19;11.20;99.90
4993;DHT22;2514;53.524;10.166;2022-11-15T11:26:12;11.30;92.40
4993;DHT22;2514;53.524;10.166;2022-11-15T11:29:01;11.30;1.00
4993;DHT22;2514;53.524;10.166;2022-11-15T11:31:37;11.30;1.00
4993;DHT22;2514;53.524;10.166;2022-11-15T11:34:17;11.30;1.00
4993;DHT22;2514;53.524;10.166;2022-11-15T11:36:54;11.20;99.90
4993;DHT22;2514;53.524;10.166;2022-11-15T11:39:31;11.20;99.90
4993;DHT22;2514;53.524;10.166;2022-11-15T11:42:12;11.10;99.90
4993;DHT22;2514;53.524;10.166;2022-11-15T11:44:53;11.10;1.00
4993;DHT22;2514;53.524;10.166;2022-11-15T11:47:31;11.20;1.00
4993;DHT22;2514;53.524;10.166;2022-11-15T11:50:11;11.20;1.00
4993;DHT22;2514;53.524;10.166;2022-11-15T11:52:54;11.30;1.00
4993;DHT22;2514;53.524;10.166;2022-11-15T11:55:27;11.40;17.30
4993;DHT22;2514;53.524;10.166;2022-11-15T11:58:04;11.30;1.00
4993;DHT22;2514;53.524;10.166;2022-11-15T12:00:40;11.30;1.00
4993;DHT22;2514;53.524;10.166;2022-11-15T12:03:12;11.30;99.90
4993;DHT22;2514;53.524;10.166;2022-11-15T12:05:47;11.40;99.90
4993;DHT22;2514;53.524;10.166;2022-11-15T12:08:25;11.40;1.00
4993;DHT22;2514;53.524;10.166;2022-11-15T12:11:00;11.40;1.00
4993;DHT22;2514;53.524;10.166;2022-11-15T12:13:30;11.50;99.90
4993;DHT22;2514;53.524;10.166;2022-11-15T12:16:05;11.50;99.90
4993;DHT22;2514;53.524;10.166;2022-11-15T12:18:36;11.50;1.00
4993;DHT22;2514;53.524;10.166;2022-11-15T12:21:08;11.60;1.00
4993;DHT22;2514;53.524;10.166;2022-11-15T12:23:45;11.70;99.90
4993;DHT22;2514;53.524;10.166;2022-11-15T12:26:17;11.60;99.90
4993;DHT22;2514;53.524;10.166;2022-11-15T12:28:49;11.60;99.90
4993;DHT22;2514;53.524;10.166;2022-11-15T12:31:23;11.70;99.90
4993;DHT22;2514;53.524;10.166;2022-11-15T12:33:55;11.70;99.90
4993;DHT22;2514;53.524;10.166;2022-11-15T12:36:38;11.90;99.90
4993;DHT22;2514;53.524;10.166;2022-11-15T12:39:06;12.20;99.90
4993;DHT22;2514;53.524;10.166;2022-11-15T12:41:36;12.30;99.90
4993;DHT22;2514;53.524;10.166;2022-11-15T12:44:04;12.40;61.40
4993;DHT22;2514;53.524;10.166;2022-11-15T12:47:00;12.60;99.90
4993;DHT22;2514;53.524;10.166;2022-11-15T12:49:45;12.60;1.00
4993;DHT22;2514;53.524;10.166;2022-11-15T12:52:15;12.70;1.00
4993;DHT22;2514;53.524;10.166;2022-11-15T12:54:59;12.80;99.90
4993;DHT22;2514;53.524;10.166;2022-11-15T12:57:36;12.70;99.90
4993;DHT22;2514;53.524;10.166;2022-11-15T13:03:32;12.70;74.30
4993;DHT22;2514;53.524;10.166;2022-11-15T13:06:06;12.50;99.90
4993;DHT22;2514;53.524;10.166;2022-11-15T13:08:41;12.40;99.90
4993;DHT22;2514;53.524;10.166;2022-11-15T13:11:41;12.50;1.00
4993;DHT22;2514;53.524;10.166;2022-11-15T13:14:45;12.50;1.00
4993;DHT22;2514;53.524;10.166;2022-11-15T13:17:28;12.50;1.00
4993;DHT22;2514;53.524;10.166;2022-11-15T13:22:46;12.40;99.90
4993;DHT22;2514;53.524;10.166;2022-11-15T13:25:48;12.40;1.00
4993;DHT22;2514;53.524;10.166;2022-11-15T13:28:27;12.30;1.00
4993;DHT22;2514;53.524;10.166;2022-11-15T13:30:59;12.30;99.90
4993;DHT22;2514;53.524;10.166;2022-11-15T13:33:30;12.20;99.90
4993;DHT22;2514;53.524;10.166;2022-11-15T13:36:02;12.10;1.00
4993;DHT22;2514;53.524;10.166;2022-11-15T13:38:33;12.10;1.00
4993;DHT22;2514;53.524;10.166;2022-11-15T13:41:17;12.10;99.90
4993;DHT22;2514;53.524;10.166;2022-11-15T13:43:46;12.00;99.90
4993;DHT22;2514;53.524;10.166;2022-11-15T13:46:17;12.00;99.90
4993;DHT22;2514;53.524;10.166;2022-11-15T13:48:47;12.00;1.00
4993;DHT22;2514;53.524;10.166;2022-11-15T13:51:23;11.90;1.00
4993;DHT22;2514;53.524;10.166;2022-11-15T13:53:55;12.00;99.90
4993;DHT22;2514;53.524;10.166;2022-11-15T13:56:27;12.00;99.90
4993;DHT22;2514;53.524;10.166;2022-11-15T13:58:55;11.90;99.90
4993;DHT22;2514;53.524;10.166;2022-11-15T14:01:23;11.90;99.90
4993;DHT22;2514;53.524;10.166;2022-11-15T14:03:55;11.90;99.90
4993;DHT22;2514;53.524;10.166;2022-11-15T14:06:25;11.80;1.00
4993;DHT22;2514;53.524;10.166;2022-11-15T14:09:02;11.80;14.20
4993;DHT22;2514;53.524;10.166;2022-11-15T14:11:32;11.80;40.20
4993;DHT22;2514;53.524;10.166;2022-11-15T14:14:13;11.80;99.90
4993;DHT22;2514;53.524;10.166;2022-11-15T14:16:43;11.80;99.90
4993;DHT22;2514;53.524;10.166;2022-11-15T14:19:12;11.80;99.90
4993;DHT22;2514;53.524;10.166;2022-11-15T14:22:07;11.80;1.00
4993;DHT22;2514;53.524;10.166;2022-11-15T14:24:39;11.80;1.00
4993;DHT22;2514;53.524;10.166;2022-11-15T14:27:23;11.80;1.00
4993;DHT22;2514;53.524;10.166;2022-11-15T14:29:51;11.80;1.00
4993;DHT22;2514;53.524;10.166;2022-11-15T14:32:20;11.70;1.00
4993;DHT22;2514;53.524;10.166;2022-11-15T14:34:49;11.70;1.00
4993;DHT22;2514;53.524;10.166;2022-11-15T14:37:22;11.70;37.30
4993;DHT22;2514;53.524;10.166;2022-11-15T14:39:51;11.60;99.90
4993;DHT22;2514;53.524;10.166;2022-11-15T14:42:20;11.60;99.90
4993;DHT22;2514;53.524;10.166;2022-11-15T14:44:50;11.60;99.90
4993;DHT22;2514;53.524;10.166;2022-11-15T14:47:18;11.50;1.00
4993;DHT22;2514;53.524;10.166;2022-11-15T14:49:45;11.50;1.00
4993;DHT22;2514;53.524;10.166;2022-11-15T14:52:27;11.50;1.00
4993;DHT22;2514;53.524;10.166;2022-11-15T14:54:55;11.40;99.90
4993;DHT22;2514;53.524;10.166;2022-11-15T14:57:24;11.40;99.90
4993;DHT22;2514;53.524;10.166;2022-11-15T14:59:51;11.30;1.00
4993;DHT22;2514;53.524;10.166;2022-11-15T15:02:20;11.30;1.00
4993;DHT22;2514;53.524;10.166;2022-11-15T15:04:48;11.30;1.00
4993;DHT22;2514;53.524;10.166;2022-11-15T15:07:16;11.30;66.50
4993;DHT22;2514;53.524;10.166;2022-11-15T15:09:44;11.20;99.90
4993;DHT22;2514;53.524;10.166;2022-11-15T15:12:15;11.10;99.90
4993;DHT22;2514;53.524;10.166;2022-11-15T15:14:45;11.10;1.00
4993;DHT22;2514;53.524;10.166;2022-11-15T15:17:13;11.00;1.00
4993;DHT22;2514;53.524;10.166;2022-11-15T15:19:41;11.00;1.00
4993;DHT22;2514;53.524;10.166;2022-11-15T15:22:13;10.90;99.60
4993;DHT22;2514;53.524;10.166;2022-11-15T15:24:41;10.80;99.90
4993;DHT22;2514;53.524;10.166;2022-11-15T15:27:08;10.80;99.90
4993;DHT22;2514;53.524;10.166;2022-11-15T15:29:35;10.70;99.90
4993;DHT22;2514;53.524;10.166;2022-11-15T15:32:07;10.70;99.90
4993;DHT22;2514;53.524;10.166;2022-11-15T15:34:34;10.60;99.90
4993;DHT22;2514;53.524;10.166;2022-11-15T15:37:11;10.50;99.90
4993;DHT22;2514;53.524;10.166;2022-11-15T15:39:49;10.40;99.90
4993;DHT22;2514;53.524;10.166;2022-11-15T15:42:16;10.40;99.90
4993;DHT22;2514;53.524;10.166;2022-11-15T15:44:43;10.40;99.90
4993;DHT22;2514;53.524;10.166;2022-11-15T15:47:15;10.40;99.90
4993;DHT22;2514;53.524;10.166;2022-11-15T15:49:43;10.30;99.90
4993;DHT22;2514;53.524;10.166;2022-11-15T15:52:10;10.30;99.90
4993;DHT22;2514;53.524;10.166;2022-11-15T15:54:38;10.30;99.90
4993;DHT22;2514;53.524;10.166;2022-11-15T15:57:05;10.30;99.90
4993;DHT22;2514;53.524;10.166;2022-11-15T15:59:33;10.20;99.90
4993;DHT22;2514;53.524;10.166;2022-11-15T16:02:00;10.20;99.90
4993;DHT22;2514;53.524;10.166;2022-11-15T16:04:28;10.20;99.90
4993;DHT22;2514;53.524;10.166;2022-11-15T16:06:58;10.10;99.90
4993;DHT22;2514;53.524;10.166;2022-11-15T16:09:26;10.10;99.90
4993;DHT22;2514;53.524;10.166;2022-11-15T16:12:07;10.10;99.90
4993;DHT22;2514;53.524;10.166;2022-11-15T16:14:34;10.10;99.90
4993;DHT22;2514;53.524;10.166;2022-11-15T16:17:01;10.10;99.90
4993;DHT22;2514;53.524;10.166;2022-11-15T16:19:29;10.20;99.90
4993;DHT22;2514;53.524;10.166;2022-11-15T16:21:56;10.20;99.90
4993;DHT22;2514;53.524;10.166;2022-11-15T16:24:23;10.30;99.90
4993;DHT22;2514;53.524;10.166;2022-11-15T16:26:51;10.30;99.90
4993;DHT22;2514;53.524;10.166;2022-11-15T16:29:18;10.40;99.90
4993;DHT22;2514;53.524;10.166;2022-11-15T16:31:45;10.40;99.90
4993;DHT22;2514;53.524;10.166;2022-11-15T16:34:12;10.40;99.90